createdAt,value
2023-06-04T00:01:22.544Z,100798.58
2023-06-04T00:03:54.345Z,100800.11
2023-06-04T00:06:25.359Z,100797.48
2023-06-04T00:08:56.225Z,100795.52
2023-06-04T00:11:27.894Z,100795.47
2023-06-04T00:13:58.756Z,100795.11
2023-06-04T00:16:30.150Z,100795.45
2023-06-04T00:19:01.202Z,100792.60
2023-06-04T00:21:32.125Z,100791.06
2023-06-04T00:24:06.901Z,100791.16
2023-06-04T00:26:38.356Z,100791.10
2023-06-04T00:29:09.439Z,100787.45
2023-06-04T00:31:40.918Z,100784.75
2023-06-04T00:34:12.044Z,100786.02
2023-06-04T00:36:43.058Z,100783.97
2023-06-04T00:39:13.791Z,100782.16
2023-06-04T00:41:44.791Z,100778.70
2023-06-04T00:44:15.521Z,100779.50
2023-06-04T00:46:49.014Z,100778.02
2023-06-04T00:49:19.773Z,100779.41
2023-06-04T00:51:51.610Z,100771.64
2023-06-04T00:54:23.712Z,100773.89
2023-06-04T00:56:54.651Z,100775.98
2023-06-04T00:59:25.635Z,100770.14
2023-06-04T01:02:00.913Z,100768.90
2023-06-04T01:04:35.278Z,100766.43
2023-06-04T01:07:09.410Z,100767.04
2023-06-04T01:09:41.808Z,100769.91
2023-06-04T01:12:14.523Z,100764.98
2023-06-04T01:14:45.611Z,100766.11
2023-06-04T01:17:21.554Z,100766.99
2023-06-04T01:20:12.985Z,100769.22
2023-06-04T01:23:01.246Z,100769.35
2023-06-04T01:25:40.158Z,100772.04
2023-06-04T01:28:12.712Z,100768.01
2023-06-04T01:30:47.156Z,100769.41
2023-06-04T01:33:21.506Z,100760.09
2023-06-04T01:35:52.649Z,100762.65
2023-06-04T01:38:23.911Z,100765.35
2023-06-04T01:40:57.379Z,100762.34
2023-06-04T01:43:28.406Z,100767.84
2023-06-04T01:45:59.493Z,100765.20
2023-06-04T01:48:30.593Z,100769.91
2023-06-04T01:51:03.136Z,100773.54
2023-06-04T01:53:33.928Z,100771.31
2023-06-04T01:56:04.697Z,100769.73
2023-06-04T01:58:35.498Z,100767.31
2023-06-04T02:01:06.882Z,100769.32
2023-06-04T02:03:38.980Z,100768.05
2023-06-04T02:06:09.985Z,100770.60
2023-06-04T02:08:42.319Z,100774.77
2023-06-04T02:11:13.060Z,100775.16
2023-06-04T02:13:43.769Z,100778.98
2023-06-04T02:16:14.823Z,100774.51
2023-06-04T02:18:45.674Z,100775.04
2023-06-04T02:21:16.388Z,100770.92
2023-06-04T02:23:47.093Z,100779.52
2023-06-04T02:26:17.797Z,100780.13
2023-06-04T02:28:48.466Z,100780.69
2023-06-04T02:31:19.614Z,100783.41
2023-06-04T02:33:50.329Z,100779.12
2023-06-04T02:36:21.116Z,100782.05
2023-06-04T02:38:52.347Z,100785.38
2023-06-04T02:41:23.636Z,100787.15
2023-06-04T02:43:54.513Z,100786.52
2023-06-04T02:46:25.510Z,100786.70
2023-06-04T02:48:57.009Z,100788.90
2023-06-04T02:51:29.562Z,100789.13
2023-06-04T02:54:00.943Z,100787.91
2023-06-04T02:56:31.775Z,100788.40
2023-06-04T02:59:02.537Z,100794.41
2023-06-04T03:01:33.352Z,100795.06
2023-06-04T03:04:06.054Z,100794.24
2023-06-04T03:06:39.270Z,100791.36
2023-06-04T03:09:10.249Z,100787.64
2023-06-04T03:11:41.703Z,100790.07
2023-06-04T03:14:13.278Z,100790.56
2023-06-04T03:16:43.993Z,100793.67
2023-06-04T03:19:14.861Z,100796.09
2023-06-04T03:21:46.159Z,100797.67
2023-06-04T03:24:17.339Z,100798.29
2023-06-04T03:26:48.086Z,100794.17
2023-06-04T03:29:19.436Z,100802.63
2023-06-04T03:31:51.294Z,100803.54
2023-06-04T03:34:26.031Z,100806.81
2023-06-04T03:36:57.677Z,100803.37
2023-06-04T03:39:28.401Z,100804.30
2023-06-04T03:41:59.293Z,100810.75
2023-06-04T03:44:30.405Z,100809.56
2023-06-04T03:47:01.440Z,100813.38
2023-06-04T03:49:32.747Z,100813.48
2023-06-04T03:52:04.706Z,100814.64
2023-06-04T03:54:36.302Z,100814.52
2023-06-04T03:57:07.373Z,100820.00
2023-06-04T03:59:38.130Z,100818.98
2023-06-04T04:02:09.050Z,100819.50
2023-06-04T04:04:39.908Z,100823.95
2023-06-04T04:07:12.637Z,100823.33
2023-06-04T04:09:43.492Z,100828.42
2023-06-04T04:12:14.876Z,100828.29
2023-06-04T04:14:45.686Z,100826.91
2023-06-04T04:17:16.710Z,100826.51
2023-06-04T04:19:47.921Z,100831.00
2023-06-04T04:22:19.547Z,100832.15
2023-06-04T04:24:50.159Z,100824.79
2023-06-04T04:27:21.973Z,100825.82
2023-06-04T04:30:00.932Z,100829.40
2023-06-04T04:32:32.896Z,100827.35
2023-06-04T04:35:04.892Z,100824.93
2023-06-04T04:37:39.992Z,100824.98
2023-06-04T04:40:13.365Z,100828.02
2023-06-04T04:42:46.015Z,100824.98
2023-06-04T04:45:18.627Z,100827.03
2023-06-04T04:47:52.068Z,100824.21
2023-06-04T04:50:23.071Z,100821.65
2023-06-04T04:52:54.506Z,100817.27
2023-06-04T04:55:25.692Z,100812.37
2023-06-04T04:57:57.254Z,100816.86
2023-06-04T05:00:28.802Z,100816.23
2023-06-04T05:03:00.444Z,100815.58
2023-06-04T05:05:31.411Z,100813.05
2023-06-04T05:08:02.889Z,100817.77
2023-06-04T05:10:37.890Z,100817.07
2023-06-04T05:13:10.097Z,100813.83
2023-06-04T05:15:46.292Z,100817.43
2023-06-04T05:18:21.557Z,100817.44
2023-06-04T05:20:54.776Z,100815.52
2023-06-04T05:23:26.253Z,100819.15
2023-06-04T05:25:57.348Z,100822.98
2023-06-04T05:28:28.435Z,100826.67
2023-06-04T05:31:00.288Z,100823.33
2023-06-04T05:33:34.524Z,100822.95
2023-06-04T05:36:10.528Z,100821.69
2023-06-04T05:38:46.931Z,100824.65
2023-06-04T05:41:19.097Z,100823.64
2023-06-04T05:43:50.336Z,100828.52
2023-06-04T05:46:22.992Z,100826.12
2023-06-04T05:48:55.218Z,100821.55
2023-06-04T05:51:26.207Z,100821.77
2023-06-04T05:53:57.090Z,100822.88
2023-06-04T05:56:28.323Z,100824.38
2023-06-04T05:58:59.362Z,100823.32
2023-06-04T06:01:30.904Z,100826.59
2023-06-04T06:04:02.025Z,100825.30
2023-06-04T06:06:34.261Z,100827.04
2023-06-04T06:09:05.861Z,100831.79
2023-06-04T06:11:37.604Z,100824.27
2023-06-04T06:14:08.343Z,100824.10
2023-06-04T06:16:42.453Z,100823.35
2023-06-04T06:19:13.463Z,100824.95
2023-06-04T06:21:44.183Z,100825.19
2023-06-04T06:24:15.270Z,100826.12
2023-06-04T06:26:46.524Z,100827.00
2023-06-04T06:29:18.492Z,100829.38
2023-06-04T06:31:52.634Z,100827.27
2023-06-04T06:34:23.536Z,100831.83
2023-06-04T06:36:54.286Z,100836.50
2023-06-04T06:39:25.080Z,100838.10
2023-06-04T06:41:56.357Z,100836.05
2023-06-04T06:44:29.635Z,100834.52
2023-06-04T06:47:00.417Z,100837.66
2023-06-04T06:49:31.322Z,100838.97
2023-06-04T06:52:25.118Z,100841.92
2023-06-04T06:54:58.234Z,100839.61
2023-06-04T06:57:29.006Z,100841.02
2023-06-04T06:59:59.749Z,100841.12
2023-06-04T07:02:31.222Z,100841.95
2023-06-04T07:05:02.037Z,100842.23
2023-06-04T07:07:33.039Z,100838.11
2023-06-04T07:10:05.143Z,100835.23
2023-06-04T07:12:35.992Z,100836.92
2023-06-04T07:15:09.374Z,100835.44
2023-06-04T07:17:41.071Z,100837.05
2023-06-04T07:20:11.351Z,100831.60
2023-06-04T07:22:42.345Z,100835.72
2023-06-04T07:25:13.348Z,100831.48
2023-06-04T07:27:44.208Z,100827.16
2023-06-04T07:30:15.971Z,100828.56
2023-06-04T07:32:50.215Z,100821.48
2023-06-04T07:35:21.570Z,100819.80
2023-06-04T07:37:53.112Z,100825.58
2023-06-04T07:40:24.064Z,100825.88
2023-06-04T07:42:54.902Z,100825.05
2023-06-04T07:45:27.547Z,100828.27
2023-06-04T07:47:59.918Z,100822.39
2023-06-04T07:50:33.897Z,100818.02
2023-06-04T07:53:07.587Z,100815.66
2023-06-04T07:55:38.484Z,100819.14
2023-06-04T07:58:09.385Z,100819.75
2023-06-04T08:00:40.354Z,100813.83
2023-06-04T08:03:11.493Z,100815.54
2023-06-04T08:05:42.338Z,100811.84
2023-06-04T08:08:13.361Z,100814.67
2023-06-04T08:10:44.461Z,100809.52
2023-06-04T08:13:15.252Z,100812.92
2023-06-04T08:15:46.614Z,100807.06
2023-06-04T08:18:18.106Z,100803.63
2023-06-04T08:20:48.929Z,100800.59
2023-06-04T08:23:20.071Z,100796.05
2023-06-04T08:25:51.396Z,100795.48
2023-06-04T08:28:22.243Z,100795.67
2023-06-04T08:30:53.109Z,100796.45
2023-06-04T08:33:23.997Z,100797.89
2023-06-04T08:35:54.721Z,100799.45
2023-06-04T08:38:27.020Z,100790.98
2023-06-04T08:41:04.951Z,100788.39
2023-06-04T08:43:37.228Z,100787.81
2023-06-04T08:46:09.904Z,100785.34
2023-06-04T08:48:41.337Z,100788.07
2023-06-04T08:51:13.116Z,100794.66
2023-06-04T08:53:48.862Z,100794.55
2023-06-04T08:56:19.691Z,100795.63
2023-06-04T08:58:52.499Z,100795.47
2023-06-04T09:01:24.270Z,100797.59
2023-06-04T09:03:55.680Z,100801.25
2023-06-04T09:06:28.722Z,100797.79
2023-06-04T09:09:01.846Z,100792.83
2023-06-04T09:11:38.374Z,100790.91
2023-06-04T09:14:11.774Z,100790.39
2023-06-04T09:16:50.052Z,100790.29
2023-06-04T09:19:21.921Z,100802.71
2023-06-04T09:21:57.107Z,100798.41
2023-06-04T09:24:42.379Z,100799.04
2023-06-04T09:27:17.669Z,100796.09
2023-06-04T09:29:54.964Z,100795.42
2023-06-04T09:32:27.752Z,100795.76
2023-06-04T09:35:10.980Z,100797.88
2023-06-04T09:37:41.753Z,100799.71
2023-06-04T09:40:14.285Z,100797.19
2023-06-04T09:42:50.693Z,100794.52
2023-06-04T09:45:32.301Z,100790.04
2023-06-04T09:48:04.531Z,100789.27
2023-06-04T09:50:44.607Z,100786.61
2023-06-04T09:53:23.574Z,100787.22
2023-06-04T09:56:01.861Z,100787.27
2023-06-04T09:58:33.206Z,100784.04
2023-06-04T10:01:05.903Z,100779.02
2023-06-04T10:03:38.337Z,100784.57
2023-06-04T10:06:11.122Z,100787.52
2023-06-04T10:08:45.582Z,100783.40
2023-06-04T10:11:19.753Z,100781.23
2023-06-04T10:13:55.481Z,100781.77
2023-06-04T10:16:34.146Z,100777.27
2023-06-04T10:19:09.625Z,100772.12
2023-06-04T10:21:41.579Z,100770.14
2023-06-04T10:24:13.115Z,100771.36
2023-06-04T10:26:44.773Z,100774.23
2023-06-04T10:29:16.660Z,100776.49
2023-06-04T10:31:46.453Z,100775.91
2023-06-04T10:34:18.077Z,100778.65
2023-06-04T10:36:49.154Z,100777.92
2023-06-04T10:39:30.216Z,100772.26
2023-06-04T10:42:10.041Z,100777.11
2023-06-04T10:44:50.061Z,100783.64
2023-06-04T10:47:25.210Z,100781.13
2023-06-04T10:49:57.197Z,100778.55
2023-06-04T10:52:27.884Z,100776.06
2023-06-04T10:55:07.909Z,100773.32
2023-06-04T10:57:38.681Z,100772.45
2023-06-04T11:00:13.901Z,100768.19
2023-06-04T11:02:56.271Z,100771.13
2023-06-04T11:05:37.883Z,100774.23
2023-06-04T11:08:09.460Z,100770.02
2023-06-04T11:10:42.939Z,100768.71
2023-06-04T11:13:13.689Z,100767.23
2023-06-04T11:15:45.800Z,100764.50
2023-06-04T11:18:19.755Z,100770.32
2023-06-04T11:20:53.496Z,100768.33
2023-06-04T11:23:25.122Z,100771.36
2023-06-04T11:25:57.314Z,100768.08
2023-06-04T11:28:28.173Z,100763.39
2023-06-04T11:31:04.697Z,100760.77
2023-06-04T11:33:45.919Z,100755.89
2023-06-04T11:36:27.042Z,100761.11
2023-06-04T11:39:02.228Z,100757.77
2023-06-04T11:41:34.482Z,100757.16
2023-06-04T11:44:10.898Z,100751.68
2023-06-04T11:46:45.590Z,100749.34
2023-06-04T11:49:20.681Z,100760.03
2023-06-04T11:51:53.275Z,100754.07
2023-06-04T11:54:25.550Z,100756.64
2023-06-04T11:56:56.987Z,100754.43
2023-06-04T11:59:28.023Z,100756.19
2023-06-04T12:01:59.084Z,100755.12
2023-06-04T12:04:33.568Z,100760.64
2023-06-04T12:07:07.381Z,100760.48
2023-06-04T12:09:39.545Z,100752.05
2023-06-04T12:12:13.611Z,100746.71
2023-06-04T12:14:46.170Z,100743.38
2023-06-04T12:17:17.119Z,100746.30
2023-06-04T12:19:52.766Z,100741.17
2023-06-04T12:22:23.545Z,100745.41
2023-06-04T12:24:57.801Z,100742.95
2023-06-04T12:27:32.703Z,100751.73
2023-06-04T12:30:05.269Z,100748.68
2023-06-04T12:32:38.647Z,100752.23
2023-06-04T12:35:10.757Z,100751.64
2023-06-04T12:37:41.480Z,100750.98
2023-06-04T12:40:14.186Z,100746.05
2023-06-04T12:42:45.138Z,100744.15
2023-06-04T12:45:16.452Z,100744.19
2023-06-04T12:47:48.617Z,100741.35
2023-06-04T12:50:22.409Z,100738.36
2023-06-04T12:52:53.595Z,100731.00
2023-06-04T12:55:25.954Z,100736.00
2023-06-04T12:57:59.129Z,100735.98
2023-06-04T13:00:29.911Z,100737.08
2023-06-04T13:03:00.925Z,100727.21
2023-06-04T13:05:31.698Z,100731.83
2023-06-04T13:08:03.240Z,100728.73
2023-06-04T13:10:34.082Z,100732.14
2023-06-04T13:13:04.888Z,100733.71
2023-06-04T13:15:35.912Z,100734.52
2023-06-04T13:18:07.267Z,100733.77
2023-06-04T13:20:38.301Z,100730.80
2023-06-04T13:23:09.110Z,100732.39
2023-06-04T13:25:40.339Z,100722.83
2023-06-04T13:28:11.403Z,100723.89
2023-06-04T13:30:42.599Z,100728.36
2023-06-04T13:33:13.547Z,100728.61
2023-06-04T13:35:45.542Z,100729.93
2023-06-04T13:38:16.408Z,100733.14
2023-06-04T13:40:47.581Z,100724.96
2023-06-04T13:43:20.518Z,100721.88
2023-06-04T13:45:54.065Z,100721.17
2023-06-04T13:48:25.024Z,100723.52
2023-06-04T13:50:59.937Z,100719.69
2023-06-04T13:53:32.433Z,100721.66
2023-06-04T13:59:07.356Z,100712.86
2023-06-04T14:01:46.788Z,100715.98
2023-06-04T14:04:32.944Z,100714.39
2023-06-04T14:07:07.389Z,100705.05
2023-06-04T14:09:38.464Z,100695.86
2023-06-04T14:12:11.684Z,100710.67
2023-06-04T14:14:42.552Z,100710.04
2023-06-04T14:17:13.369Z,100705.58
2023-06-04T14:19:44.159Z,100708.35
2023-06-04T14:22:15.145Z,100709.73
2023-06-04T14:24:45.984Z,100706.61
2023-06-04T14:27:16.760Z,100708.55
2023-06-04T14:29:47.460Z,100708.39
2023-06-04T14:32:18.193Z,100706.27
2023-06-04T14:34:48.926Z,100706.18
2023-06-04T14:37:20.798Z,100703.67
2023-06-04T14:39:51.519Z,100698.11
2023-06-04T14:42:22.349Z,100698.50
2023-06-04T14:44:53.218Z,100695.13
2023-06-04T14:47:29.484Z,100692.83
2023-06-04T14:50:00.170Z,100687.36
2023-06-04T14:52:31.117Z,100682.38
2023-06-04T14:55:01.811Z,100681.59
2023-06-04T14:57:32.478Z,100681.89
2023-06-04T15:00:03.685Z,100682.27
2023-06-04T15:02:34.452Z,100678.01
2023-06-04T15:05:05.887Z,100678.11
2023-06-04T15:07:38.934Z,100671.30
2023-06-04T15:10:11.228Z,100672.65
2023-06-04T15:12:42.223Z,100674.81
2023-06-04T15:15:13.963Z,100667.80
2023-06-04T15:17:47.913Z,100668.89
2023-06-04T15:20:19.558Z,100671.60
2023-06-04T15:22:50.345Z,100673.83
2023-06-04T15:25:21.097Z,100673.91
2023-06-04T15:27:52.107Z,100669.58
2023-06-04T15:30:23.310Z,100668.58
2023-06-04T15:32:54.398Z,100663.85
2023-06-04T15:35:25.324Z,100662.25
2023-06-04T15:37:56.367Z,100672.44
2023-06-04T15:40:27.204Z,100671.45
2023-06-04T15:42:57.857Z,100667.45
2023-06-04T15:45:28.761Z,100669.82
2023-06-04T15:47:59.670Z,100668.07
2023-06-04T15:50:30.343Z,100672.58
2023-06-04T15:53:01.427Z,100677.11
2023-06-04T15:55:32.188Z,100671.77
2023-06-04T15:58:02.894Z,100660.42
2023-06-04T16:00:33.770Z,100668.27
2023-06-04T16:03:04.658Z,100668.86
2023-06-04T16:05:35.302Z,100665.39
2023-06-04T16:08:06.006Z,100669.34
2023-06-04T16:10:37.334Z,100664.37
2023-06-04T16:13:08.160Z,100661.94
2023-06-04T16:15:39.233Z,100660.16
2023-06-04T16:18:11.236Z,100662.41
2023-06-04T16:20:42.140Z,100662.22
2023-06-04T16:23:12.850Z,100659.56
2023-06-04T16:25:43.587Z,100655.30
2023-06-04T16:28:14.579Z,100655.15
2023-06-04T16:30:45.430Z,100656.30
2023-06-04T16:33:16.147Z,100653.34
2023-06-04T16:35:47.216Z,100654.55
2023-06-04T16:38:18.374Z,100661.09
2023-06-04T16:40:49.194Z,100659.99
2023-06-04T16:43:20.119Z,100656.08
2023-06-04T16:45:54.338Z,100652.31
2023-06-04T16:48:25.628Z,100650.38
2023-06-04T16:50:56.681Z,100655.31
2023-06-04T16:53:29.755Z,100645.52
2023-06-04T16:56:00.556Z,100641.54
2023-06-04T16:58:36.096Z,100647.67
2023-06-04T17:01:09.693Z,100643.73
2023-06-04T17:03:40.834Z,100639.45
2023-06-04T17:06:12.032Z,100636.61
2023-06-04T17:08:43.223Z,100640.26
2023-06-04T17:11:15.721Z,100640.02
2023-06-04T17:13:46.893Z,100644.88
2023-06-04T17:16:18.576Z,100638.62
2023-06-04T17:18:50.038Z,100634.52
2023-06-04T17:21:21.018Z,100635.87
2023-06-04T17:23:52.765Z,100638.02
2023-06-04T17:26:24.317Z,100640.48
2023-06-04T17:28:55.502Z,100639.96
2023-06-04T17:31:26.968Z,100637.95
2023-06-04T17:33:58.127Z,100636.34
2023-06-04T17:36:29.295Z,100639.85
2023-06-04T17:39:00.188Z,100644.27
2023-06-04T17:41:31.486Z,100642.23
2023-06-04T17:44:02.653Z,100643.82
2023-06-04T17:46:33.958Z,100643.15
2023-06-04T17:49:10.750Z,100641.98
2023-06-04T17:51:41.880Z,100644.33
2023-06-04T17:54:13.325Z,100641.78
2023-06-04T17:56:44.367Z,100638.99
2023-06-04T17:59:15.497Z,100640.17
2023-06-04T18:01:47.054Z,100640.20
2023-06-04T18:04:18.739Z,100639.41
2023-06-04T18:06:49.890Z,100641.04
2023-06-04T18:09:20.844Z,100644.71
2023-06-04T18:11:51.741Z,100646.48
2023-06-04T18:14:22.613Z,100647.65
2023-06-04T18:16:53.415Z,100650.17
2023-06-04T18:19:24.317Z,100651.33
2023-06-04T18:21:54.973Z,100651.17
2023-06-04T18:24:25.909Z,100651.10
2023-06-04T18:26:56.639Z,100654.45
2023-06-04T18:29:28.136Z,100655.49
2023-06-04T18:31:59.034Z,100661.96
2023-06-04T18:34:30.844Z,100659.36
2023-06-04T18:37:01.736Z,100662.73
2023-06-04T18:39:32.630Z,100659.70
2023-06-04T18:42:05.686Z,100662.98
2023-06-04T18:44:44.035Z,100662.70
2023-06-04T18:47:15.046Z,100666.15
2023-06-04T18:49:45.862Z,100665.58
2023-06-04T18:52:16.719Z,100667.60
2023-06-04T18:54:47.654Z,100671.63
2023-06-04T18:57:18.462Z,100672.55
2023-06-04T18:59:49.186Z,100671.10
2023-06-04T19:02:19.919Z,100678.85
2023-06-04T19:04:50.977Z,100677.11
2023-06-04T19:07:21.958Z,100682.94
2023-06-04T19:09:52.786Z,100684.48
2023-06-04T19:12:23.519Z,100685.49
2023-06-04T19:14:54.316Z,100684.60
2023-06-04T19:17:29.526Z,100687.30
2023-06-04T19:20:00.293Z,100687.23
2023-06-04T19:22:31.210Z,100690.64
2023-06-04T19:25:02.055Z,100699.91
2023-06-04T19:27:32.902Z,100700.80
2023-06-04T19:30:03.865Z,100700.88
2023-06-04T19:32:34.654Z,100701.48
2023-06-04T19:35:06.004Z,100703.25
2023-06-04T19:37:36.880Z,100700.86
2023-06-04T19:40:12.137Z,100705.52
2023-06-04T19:42:46.887Z,100706.41
2023-06-04T19:45:18.223Z,100705.57
2023-06-04T19:47:49.544Z,100713.39
2023-06-04T19:50:21.383Z,100718.14
2023-06-04T19:52:52.213Z,100720.35
2023-06-04T19:55:22.887Z,100721.51
2023-06-04T19:57:53.647Z,100716.55
2023-06-04T20:00:24.414Z,100725.12
2023-06-04T20:02:56.055Z,100728.89
2023-06-04T20:05:27.538Z,100729.56
2023-06-04T20:07:59.099Z,100732.96
2023-06-04T20:10:30.546Z,100732.52
2023-06-04T20:13:02.010Z,100734.30
2023-06-04T20:15:34.427Z,100740.36
2023-06-04T20:18:05.693Z,100741.03
2023-06-04T20:20:37.251Z,100745.39
2023-06-04T20:23:08.113Z,100748.87
2023-06-04T20:25:39.207Z,100750.88
2023-06-04T20:28:10.821Z,100751.17
2023-06-04T20:30:41.813Z,100752.60
2023-06-04T20:33:15.223Z,100752.40
2023-06-04T20:35:46.586Z,100753.08
2023-06-04T20:38:20.028Z,100752.41
2023-06-04T20:40:51.093Z,100754.74
2023-06-04T20:43:21.787Z,100761.84
2023-06-04T20:45:56.344Z,100766.33
2023-06-04T20:48:27.359Z,100770.13
2023-06-04T20:50:59.348Z,100769.20
2023-06-04T20:53:30.721Z,100769.41
2023-06-04T20:56:01.952Z,100768.20
2023-06-04T20:58:32.843Z,100771.70
2023-06-04T21:01:03.879Z,100769.80
2023-06-04T21:03:36.257Z,100769.44
2023-06-04T21:06:08.086Z,100770.69
2023-06-04T21:08:39.421Z,100773.75
2023-06-04T21:11:10.705Z,100774.86
2023-06-04T21:13:42.078Z,100779.53
2023-06-04T21:16:12.843Z,100787.33
2023-06-04T21:18:43.596Z,100783.74
2023-06-04T21:21:14.484Z,100783.86
2023-06-04T21:23:45.691Z,100787.27
2023-06-04T21:26:18.177Z,100788.91
2023-06-04T21:28:47.335Z,100790.91
2023-06-04T21:31:18.289Z,100793.59
2023-06-04T21:33:49.180Z,100789.71
2023-06-04T21:36:20.288Z,100785.93
2023-06-04T21:38:51.260Z,100788.98
2023-06-04T21:41:23.065Z,100788.52
2023-06-04T21:43:54.396Z,100788.98
2023-06-04T21:46:25.823Z,100790.60
2023-06-04T21:48:56.978Z,100792.84
2023-06-04T21:51:29.798Z,100793.80
2023-06-04T21:54:00.915Z,100794.86
2023-06-04T21:56:31.604Z,100796.79
2023-06-04T21:59:02.238Z,100800.96
2023-06-04T22:01:33.436Z,100799.66
2023-06-04T22:04:04.554Z,100805.39
2023-06-04T22:06:35.873Z,100799.13
2023-06-04T22:09:06.814Z,100802.64
2023-06-04T22:11:38.499Z,100801.20
2023-06-04T22:14:09.357Z,100805.48
2023-06-04T22:16:40.663Z,100802.16
2023-06-04T22:19:11.583Z,100801.45
2023-06-04T22:21:45.704Z,100804.29
2023-06-04T22:24:16.810Z,100802.37
2023-06-04T22:26:47.622Z,100802.70
2023-06-04T22:29:18.786Z,100802.75
2023-06-04T22:31:49.805Z,100801.70
2023-06-04T22:34:21.285Z,100800.31
2023-06-04T22:36:52.110Z,100798.21
2023-06-04T22:39:23.159Z,100799.62
2023-06-04T22:41:56.878Z,100797.77
2023-06-04T22:44:27.912Z,100794.94
2023-06-04T22:46:59.084Z,100795.62
2023-06-04T22:49:30.185Z,100797.60
2023-06-04T22:52:02.007Z,100796.61
2023-06-04T22:54:32.891Z,100798.23
2023-06-04T22:57:03.681Z,100801.65
2023-06-04T22:59:34.448Z,100798.45
2023-06-04T23:02:06.495Z,100803.38
2023-06-04T23:04:37.875Z,100804.56
2023-06-04T23:07:10.151Z,100804.85
2023-06-04T23:09:41.883Z,100802.98
2023-06-04T23:12:13.097Z,100804.65
2023-06-04T23:14:43.885Z,100804.66
2023-06-04T23:17:15.773Z,100803.45
2023-06-04T23:19:47.071Z,100805.12
2023-06-04T23:22:17.724Z,100803.66
2023-06-04T23:24:48.816Z,100804.23
2023-06-04T23:27:20.125Z,100802.77
2023-06-04T23:29:51.041Z,100805.66
2023-06-04T23:32:21.936Z,100803.55
2023-06-04T23:34:52.845Z,100802.72
2023-06-04T23:37:23.610Z,100806.70
2023-06-04T23:39:54.309Z,100803.77
2023-06-04T23:42:25.106Z,100809.30
2023-06-04T23:44:56.703Z,100808.64
2023-06-04T23:47:28.207Z,100806.48
2023-06-04T23:49:59.554Z,100802.83
2023-06-04T23:52:30.393Z,100808.20
2023-06-04T23:55:01.634Z,100806.70
2023-06-04T23:57:32.504Z,100805.91
